Time;durP1;ratioP1;P1;durP2;ratioP2;P2;SDS_P1;SDS_P2;PMS_P1;PMS_P2;Temp;Humidity;BMP_temperature;BMP_pressure;BME280_temperature;BME280_humidity;BME280_pressure;Samples;Min_cycle;Max_cycle;Signal;HPM_P1;HPM_P2
2023/04/22 00:02:22;;;;;;;5.95;5.32;;;;;;;10.60;48.59;93515.56;4967199;28;20042;-77
2023/04/22 00:04:48;;;;;;;6.30;5.68;;;;;;;10.51;48.93;93522.81;4977214;28;20042;-78
2023/04/22 00:07:14;;;;;;;7.57;5.43;;;;;;;10.43;49.29;93529.72;4976084;28;20030;-77
2023/04/22 00:09:40;;;;;;;7.40;5.05;;;;;;;10.33;49.39;93512.19;4978989;28;20018;-78
2023/04/22 00:12:06;;;;;;;5.28;4.82;;;;;;;10.41;49.25;93512.53;4974476;28;20038;-78
2023/04/22 00:14:31;;;;;;;8.13;4.93;;;;;;;10.42;49.22;93511.41;4974899;28;20081;-77
2023/04/22 00:16:56;;;;;;;5.65;5.15;;;;;;;10.41;49.03;93509.88;4973993;28;20046;-76
2023/04/22 00:19:23;;;;;;;5.95;5.38;;;;;;;10.48;48.82;93512.78;4977069;28;20105;-78
2023/04/22 00:21:49;;;;;;;6.90;5.07;;;;;;;10.50;48.77;93510.63;4975727;28;20049;-78
2023/04/22 00:24:14;;;;;;;7.18;5.22;;;;;;;10.45;49.04;93498.28;4978945;28;20551;-77
2023/04/22 00:26:39;;;;;;;6.32;5.30;;;;;;;10.59;48.80;93532.63;4975167;28;20041;-78
2023/04/22 00:29:05;;;;;;;7.03;4.45;;;;;;;10.57;48.65;93529.50;4980767;28;20611;-79
2023/04/22 00:31:30;;;;;;;6.60;4.38;;;;;;;10.56;49.05;93525.28;4974397;28;20184;-78
2023/04/22 00:33:56;;;;;;;6.57;4.25;;;;;;;10.54;48.86;93532.81;4977079;28;20027;-78
2023/04/22 00:36:21;;;;;;;4.68;4.28;;;;;;;10.48;48.71;93515.47;4972939;28;20530;-78
2023/04/22 00:38:51;;;;;;;9.20;5.00;;;;;;;10.42;48.65;93514.06;4975817;28;20445;-79
2023/04/22 00:41:16;;;;;;;6.55;4.50;;;;;;;10.50;48.37;93502.63;4976975;28;20108;-77
2023/04/22 00:43:42;;;;;;;7.40;4.63;;;;;;;10.57;48.63;93532.16;4976668;28;20985;-77
2023/04/22 00:46:08;;;;;;;6.22;3.92;;;;;;;10.44;48.94;93533.94;4970825;28;20022;-78
2023/04/22 00:48:38;;;;;;;7.25;4.78;;;;;;;10.26;49.38;93543.03;4978954;28;20229;-79
2023/04/22 00:51:04;;;;;;;6.97;4.75;;;;;;;10.18;49.47;93538.50;4975698;28;20042;-78
2023/04/22 00:53:30;;;;;;;5.32;4.82;;;;;;;10.09;49.18;93527.91;4977409;28;20343;-78
2023/04/22 00:55:55;;;;;;;6.32;5.22;;;;;;;10.24;49.36;93553.97;4977273;28;20057;-77
2023/04/22 00:58:22;;;;;;;5.63;5.03;;;;;;;10.01;49.39;93534.03;4977964;28;20109;-78
2023/04/22 01:00:47;;;;;;;7.93;5.78;;;;;;;9.93;49.82;93540.13;4977238;28;20306;-77
2023/04/22 01:03:13;;;;;;;7.40;5.38;;;;;;;9.85;50.38;93531.06;4979215;28;20708;-77
2023/04/22 01:05:39;;;;;;;5.10;4.57;;;;;;;9.74;50.54;93521.06;4981013;28;20047;-77
2023/04/22 01:08:05;;;;;;;8.80;5.53;;;;;;;9.91;50.82;93547.63;4982012;28;20035;-78
2023/04/22 01:10:30;;;;;;;5.85;5.25;;;;;;;9.89;50.34;93539.19;4979840;28;20080;-79
2023/04/22 01:12:56;;;;;;;7.78;6.22;;;;;;;9.92;50.56;93554.50;4979806;28;20129;-78
2023/04/22 01:15:21;;;;;;;7.90;6.95;;;;;;;9.74;50.61;93529.03;4981223;28;20085;-77
2023/04/22 01:17:47;;;;;;;8.82;7.45;;;;;;;9.70;50.82;93530.78;4980170;28;20473;-78
2023/04/22 01:20:12;;;;;;;10.25;6.90;;;;;;;9.77;51.07;93552.34;4980298;28;21057;-75
2023/04/22 01:22:44;;;;;;;6.57;5.82;;;;;;;9.72;51.42;93544.53;4975222;28;20027;-78
2023/04/22 01:25:10;;;;;;;6.93;6.18;;;;;;;9.74;51.14;93547.63;4988340;28;20428;-78
2023/04/22 01:27:37;;;;;;;8.23;6.18;;;;;;;9.77;51.48;93549.69;4981180;28;20034;-78
2023/04/22 01:30:06;;;;;;;6.78;6.07;;;;;;;9.77;51.33;93547.81;4981243;28;20034;-78
2023/04/22 01:32:32;;;;;;;8.70;6.70;;;;;;;9.77;51.58;93549.69;4979493;28;20034;-78
2023/04/22 01:34:58;;;;;;;8.32;7.07;;;;;;;9.59;51.51;93529.53;4979939;28;20513;-77
2023/04/22 01:37:23;;;;;;;8.45;7.20;;;;;;;9.71;51.97;93548.28;4977362;28;20043;-78
2023/04/22 01:39:49;;;;;;;9.77;7.75;;;;;;;9.72;51.63;93544.53;4980312;28;20084;-77
2023/04/22 01:42:14;;;;;;;9.63;7.97;;;;;;;9.64;52.08;93537.31;4980060;28;20034;-77
2023/04/22 01:44:40;;;;;;;12.50;8.90;;;;;;;9.62;51.83;93535.00;4976500;28;20133;-78
2023/04/22 01:47:06;;;;;;;13.65;10.38;;;;;;;9.74;52.59;93544.97;4980852;28;20039;-78
2023/04/22 01:49:32;;;;;;;11.05;9.85;;;;;;;9.80;52.24;93543.72;4981904;28;20144;-78
2023/04/22 01:51:58;;;;;;;11.23;9.23;;;;;;;9.71;52.58;93540.31;4981504;28;20485;-77
2023/04/22 01:54:23;;;;;;;12.15;10.80;;;;;;;9.68;52.61;93538.28;4978187;28;20073;-77
2023/04/22 01:56:50;;;;;;;15.65;10.98;;;;;;;9.63;52.89;93538.44;4977524;28;20066;-77
2023/04/22 01:59:15;;;;;;;14.88;10.85;;;;;;;9.57;53.16;93518.44;4980764;28;20045;-77
2023/04/22 02:01:41;;;;;;;11.75;10.10;;;;;;;9.64;53.13;93532.81;4964750;28;20520;-77
2023/04/22 02:04:06;;;;;;;14.77;10.30;;;;;;;9.42;53.84;93501.91;4979824;28;20091;-78
2023/04/22 02:06:32;;;;;;;24.40;11.95;;;;;;;9.63;53.92;93539.22;4978709;28;20641;-77
2023/04/22 02:08:57;;;;;;;12.40;10.38;;;;;;;9.31;54.36;93503.31;4977959;28;20053;-77
2023/04/22 02:11:22;;;;;;;13.25;11.05;;;;;;;9.60;54.58;93542.50;4977661;28;20448;-78
2023/04/22 02:13:48;;;;;;;15.57;10.43;;;;;;;9.66;54.01;93532.50;4977595;28;20770;-77
2023/04/22 02:16:14;;;;;;;31.92;11.73;;;;;;;9.70;54.41;93536.09;4977858;28;20333;-77
2023/04/22 02:18:39;;;;;;;14.10;9.60;;;;;;;9.67;54.38;93523.44;4978895;28;20018;-77
2023/04/22 02:21:04;;;;;;;12.93;10.18;;;;;;;9.67;54.22;93518.91;4979336;28;20038;-77
2023/04/22 02:23:30;;;;;;;11.60;9.55;;;;;;;9.66;54.68;93533.28;4979986;28;20556;-77
2023/04/22 02:25:55;;;;;;;12.10;9.10;;;;;;;9.45;54.24;93493.31;4976852;28;20038;-77
2023/04/22 02:28:21;;;;;;;11.52;9.85;;;;;;;9.75;54.21;93546.53;4979770;28;20062;-78
2023/04/22 02:30:46;;;;;;;10.15;8.30;;;;;;;9.68;54.00;93519.69;4978377;28;20030;-76
2023/04/22 02:33:12;;;;;;;14.63;8.70;;;;;;;9.66;53.88;93521.88;4981150;28;20098;-76
2023/04/22 02:35:37;;;;;;;11.10;8.73;;;;;;;9.84;53.75;93550.75;4979090;28;20265;-77
2023/04/22 02:38:03;;;;;;;9.23;8.15;;;;;;;9.82;53.95;93534.38;4980575;28;20459;-78
2023/04/22 02:40:28;;;;;;;11.43;9.30;;;;;;;9.68;53.68;93525.00;4976054;28;20778;-77
2023/04/22 02:42:54;;;;;;;12.30;8.50;;;;;;;9.86;53.64;93553.09;4980596;28;20023;-77
2023/04/22 02:45:20;;;;;;;12.00;9.02;;;;;;;9.87;53.71;93550.16;4978515;28;20039;-76
2023/04/22 02:47:45;;;;;;;11.05;8.73;;;;;;;9.67;53.50;93523.44;4981673;28;20089;-77
2023/04/22 02:50:11;;;;;;;13.40;8.38;;;;;;;9.72;53.90;93541.88;4977136;28;20129;-77
2023/04/22 02:52:36;;;;;;;13.07;9.30;;;;;;;9.75;53.88;93538.59;4979229;28;20447;-78
2023/04/22 02:55:04;;;;;;;13.38;9.25;;;;;;;9.63;53.86;93541.09;4976965;28;20038;-77
2023/04/22 02:57:29;;;;;;;15.95;9.23;;;;;;;9.52;54.06;93534.53;4981431;28;20030;-77
2023/04/22 02:59:55;;;;;;;11.80;8.65;;;;;;;9.52;53.96;93545.94;4978590;28;20042;-78
2023/04/22 03:02:21;;;;;;;12.10;9.00;;;;;;;9.38;54.04;93527.50;4978556;28;20041;-77
2023/04/22 03:04:47;;;;;;;13.38;9.93;;;;;;;9.57;53.73;93563.59;4976461;28;20034;-77
2023/04/22 03:07:12;;;;;;;11.82;9.93;;;;;;;9.54;53.73;93558.88;4978489;28;20034;-78
2023/04/22 03:09:38;;;;;;;14.55;10.23;;;;;;;9.49;53.85;93545.78;4976895;28;20053;-78
2023/04/22 03:12:04;;;;;;;13.50;10.90;;;;;;;9.35;54.06;93536.09;4977804;28;20584;-78
2023/04/22 03:14:29;;;;;;;13.65;10.82;;;;;;;9.48;54.19;93562.81;4977856;28;20507;-78
2023/04/22 03:16:55;;;;;;;13.85;10.00;;;;;;;9.51;54.55;93559.50;4979177;28;20042;-78
2023/04/22 03:19:20;;;;;;;16.27;10.27;;;;;;;9.56;54.35;93559.34;4978272;28;20416;-77
2023/04/22 03:21:46;;;;;;;12.18;10.00;;;;;;;9.37;54.09;93536.56;4975860;28;20037;-78
2023/04/22 03:24:11;;;;;;;11.80;9.85;;;;;;;9.33;54.05;93532.97;4976803;28;20117;-78
2023/04/22 03:26:37;;;;;;;13.93;11.20;;;;;;;9.52;54.31;93558.44;4977025;28;20594;-78
2023/04/22 03:29:02;;;;;;;15.10;10.60;;;;;;;9.48;54.24;93558.28;4977765;28;20041;-78
2023/04/22 03:31:27;;;;;;;12.43;10.23;;;;;;;9.41;54.37;93540.16;4969069;28;20034;-76
2023/04/22 03:33:53;;;;;;;12.25;9.85;;;;;;;9.59;54.03;93567.47;4975806;28;20026;-78
2023/04/22 03:36:18;;;;;;;13.65;10.80;;;;;;;9.57;54.22;93561.72;4978469;28;20042;-78
2023/04/22 03:38:43;;;;;;;11.48;9.32;;;;;;;9.44;54.65;93552.78;4976264;28;20492;-78
2023/04/22 03:41:09;;;;;;;16.17;11.30;;;;;;;9.34;54.55;93545.13;4979513;28;20061;-79
2023/04/22 03:43:34;;;;;;;12.98;10.70;;;;;;;9.49;54.85;93575.00;4976229;28;20030;-78
2023/04/22 03:46:00;;;;;;;12.07;9.88;;;;;;;9.43;54.98;93577.78;4977745;28;20022;-77
2023/04/22 03:48:27;;;;;;;17.52;11.10;;;;;;;9.44;54.88;93563.41;4977035;28;20034;-79
2023/04/22 03:50:53;;;;;;;14.27;11.23;;;;;;;9.39;55.06;93555.59;4979363;28;20500;-79
2023/04/22 03:53:18;;;;;;;16.67;11.45;;;;;;;9.35;55.23;93554.66;4976196;28;20092;-78
2023/04/22 03:55:44;;;;;;;15.88;11.48;;;;;;;9.35;55.32;93552.00;4978072;28;20076;-79
2023/04/22 03:58:09;;;;;;;15.65;10.95;;;;;;;9.40;55.04;93559.81;4977222;28;20030;-78
2023/04/22 04:00:35;;;;;;;14.45;11.02;;;;;;;9.40;55.20;93559.81;4976286;28;20030;-77
2023/04/22 04:03:00;;;;;;;13.43;11.00;;;;;;;9.59;55.19;93586.06;4977348;28;20035;-78
2023/04/22 04:05:25;;;;;;;16.42;10.93;;;;;;;9.55;55.18;93577.16;4975096;28;20566;-78
2023/04/22 04:07:51;;;;;;;13.77;10.38;;;;;;;9.65;55.25;93592.00;4976247;28;20050;-77
2023/04/22 04:10:16;;;;;;;12.55;10.02;;;;;;;9.56;55.89;93578.72;4976926;28;20543;-78
2023/04/22 04:12:43;;;;;;;14.18;10.85;;;;;;;9.66;55.93;93599.66;4977847;28;20053;-78
2023/04/22 04:15:09;;;;;;;17.60;11.23;;;;;;;9.59;56.20;93583.41;4983986;28;20124;-78
2023/04/22 04:17:35;;;;;;;13.15;9.85;;;;;;;9.71;56.41;93593.41;4989340;28;20042;-77
2023/04/22 04:20:00;;;;;;;15.18;10.75;;;;;;;9.78;56.52;93591.09;4977798;28;20066;-78
2023/04/22 04:22:26;;;;;;;17.73;13.05;;;;;;;9.84;56.04;93598.56;4978589;28;20034;-77
2023/04/22 04:24:54;;;;;;;16.75;12.18;;;;;;;9.89;55.22;93584.34;4975256;28;20018;-78
2023/04/22 04:27:22;;;;;;;16.52;12.63;;;;;;;10.01;55.14;93579.19;4975787;28;20124;-78
2023/04/22 04:29:48;;;;;;;14.07;12.02;;;;;;;10.27;54.46;93590.53;4967471;28;20034;-78
2023/04/22 04:32:13;;;;;;;16.65;11.98;;;;;;;10.28;54.02;93583.34;4976541;28;20066;-78
2023/04/22 04:34:39;;;;;;;13.48;10.07;;;;;;;10.44;54.25;93600.41;4977476;28;20404;-76
2023/04/22 04:37:04;;;;;;;16.35;11.65;;;;;;;10.45;54.32;93599.31;4974307;28;20796;-78
2023/04/22 04:39:31;;;;;;;20.02;12.00;;;;;;;10.62;53.62;93603.78;4978733;28;20037;-78
2023/04/22 04:41:59;;;;;;;18.75;12.77;;;;;;;10.51;53.92;93586.63;4973848;28;20185;-77
2023/04/22 04:44:26;;;;;;;27.58;14.52;;;;;;;10.74;53.44;93596.72;4975773;28;20073;-78
2023/04/22 04:46:53;;;;;;;24.92;13.73;;;;;;;10.37;53.70;93564.78;4974598;28;20031;-77
2023/04/22 04:49:19;;;;;;;20.65;14.15;;;;;;;10.24;54.97;93612.44;4977218;28;20046;-77
2023/04/22 04:51:45;;;;;;;24.60;15.70;;;;;;;10.10;56.19;93627.78;4973664;28;20022;-77
2023/04/22 04:54:10;;;;;;;18.98;15.20;;;;;;;9.63;57.36;93634.03;4975373;28;20030;-77
2023/04/22 04:56:35;;;;;;;21.85;16.65;;;;;;;9.45;57.41;93626.03;4976193;28;20800;-76
2023/04/22 04:59:01;;;;;;;27.77;16.85;;;;;;;9.34;59.44;93645.97;4976085;28;20038;-76
2023/04/22 05:01:26;;;;;;;22.98;17.25;;;;;;;9.22;58.90;93616.63;4978470;28;20404;-76
2023/04/22 05:03:51;;;;;;;24.23;16.40;;;;;;;9.76;57.24;93641.06;4975775;28;20079;-77
2023/04/22 05:06:19;;;;;;;22.98;16.15;;;;;;;9.53;57.93;93642.28;4974370;28;20057;-76
2023/04/22 05:08:45;;;;;;;19.58;15.32;;;;;;;9.98;56.88;93632.16;4977688;28;20042;-78
2023/04/22 05:11:10;;;;;;;17.20;15.40;;;;;;;10.31;56.08;93646.53;4977060;28;20375;-78
2023/04/22 05:13:36;;;;;;;25.23;15.90;;;;;;;9.82;56.49;93622.03;4972982;28;20081;-77
2023/04/22 05:16:01;;;;;;;24.48;16.27;;;;;;;9.84;56.94;93619.81;4972926;28;20026;-76
2023/04/22 05:18:27;;;;;;;25.40;16.23;;;;;;;10.03;56.01;93639.97;4975311;28;20018;-77
2023/04/22 05:20:52;;;;;;;23.63;16.60;;;;;;;9.95;56.67;93633.56;4971490;28;20034;-77
2023/04/22 05:23:18;;;;;;;20.67;15.68;;;;;;;10.55;55.10;93646.06;4972481;28;20432;-77
2023/04/22 05:25:43;;;;;;;18.40;13.68;;;;;;;10.39;54.90;93615.72;4972700;28;20157;-76
2023/04/22 05:28:09;;;;;;;17.92;13.70;;;;;;;10.51;54.81;93639.81;4972929;28;20975;-76
2023/04/22 05:30:34;;;;;;;20.60;15.55;;;;;;;11.08;53.35;93643.69;4974046;28;20480;-77
2023/04/22 05:33:00;;;;;;;19.27;15.10;;;;;;;10.62;53.90;93636.47;4975947;28;20041;-77
2023/04/22 05:35:25;;;;;;;20.70;15.13;;;;;;;10.80;54.03;93645.22;4976599;28;20045;-76
2023/04/22 05:37:51;;;;;;;20.90;15.70;;;;;;;10.95;52.72;93651.88;4973739;28;20038;-78
2023/04/22 05:40:16;;;;;;;18.55;15.20;;;;;;;11.14;53.16;93650.41;4975579;28;20068;-77
2023/04/22 05:42:42;;;;;;;22.25;15.23;;;;;;;10.88;53.25;93644.38;4976454;28;20077;-77
2023/04/22 05:45:08;;;;;;;20.02;15.32;;;;;;;10.98;53.30;93654.69;4975257;28;20542;-77
2023/04/22 05:47:33;;;;;;;20.30;14.10;;;;;;;11.14;52.75;93649.63;4977040;28;20118;-77
2023/04/22 05:49:58;;;;;;;21.55;15.88;;;;;;;11.27;52.25;93658.47;4979088;28;20049;-77
2023/04/22 05:52:24;;;;;;;27.25;16.65;;;;;;;11.05;52.48;93638.97;4977104;28;20035;-77
2023/04/22 05:54:49;;;;;;;25.92;16.52;;;;;;;11.17;51.61;93631.13;4978993;28;20058;-77
2023/04/22 05:57:15;;;;;;;23.20;16.92;;;;;;;11.13;52.47;93635.53;4974867;28;20445;-77
2023/04/22 05:59:40;;;;;;;21.08;16.33;;;;;;;10.86;52.96;93622.63;4977068;28;20130;-77
2023/04/22 06:02:05;;;;;;;24.45;16.42;;;;;;;11.37;52.05;93623.50;4976746;28;20049;-77
2023/04/22 06:04:31;;;;;;;26.00;15.63;;;;;;;11.36;52.84;93646.69;4975706;28;20046;-77
2023/04/22 06:06:56;;;;;;;25.48;16.90;;;;;;;10.96;53.72;93635.59;4978686;28;20515;-78
2023/04/22 06:09:22;;;;;;;28.45;15.88;;;;;;;11.30;52.39;93608.03;4975121;28;20069;-77
2023/04/22 06:11:47;;;;;;;25.08;16.55;;;;;;;11.60;51.34;93603.47;4976072;28;20389;-77
2023/04/22 06:14:13;;;;;;;22.77;15.13;;;;;;;11.49;51.45;93621.69;4977792;28;20093;-76
2023/04/22 06:16:38;;;;;;;21.23;14.27;;;;;;;11.06;53.16;93650.41;4979750;28;20042;-78
2023/04/22 06:19:06;;;;;;;18.63;13.38;;;;;;;11.39;52.75;93648.72;4976700;28;20057;-78
2023/04/22 06:21:32;;;;;;;22.50;12.77;;;;;;;12.02;51.08;93638.94;4976631;28;20022;-78
2023/04/22 06:23:58;;;;;;;19.30;14.15;;;;;;;11.98;49.66;93590.81;4975866;28;20039;-77
2023/04/22 06:26:25;;;;;;;18.55;13.70;;;;;;;12.09;49.07;93609.06;4977724;28;21151;-76
2023/04/22 06:28:50;;;;;;;20.25;14.82;;;;;;;12.44;49.70;93639.66;4979177;28;20026;-77
2023/04/22 06:31:16;;;;;;;19.02;14.75;;;;;;;11.65;51.90;93645.91;4985342;28;20449;-78
2023/04/22 06:33:41;;;;;;;18.30;14.65;;;;;;;10.95;53.27;93631.38;4969146;28;20378;-77
2023/04/22 06:36:07;;;;;;;16.08;13.27;;;;;;;11.27;52.67;93637.19;4969842;28;20069;-77
2023/04/22 06:38:32;;;;;;;20.42;14.40;;;;;;;11.90;51.68;93642.31;4969818;28;20042;-77
2023/04/22 06:40:57;;;;;;;16.83;12.82;;;;;;;12.23;48.96;93636.22;4975695;28;20519;-77
2023/04/22 06:43:23;;;;;;;24.20;15.63;;;;;;;11.77;50.66;93643.34;4963199;28;20057;-78
2023/04/22 06:45:48;;;;;;;15.48;13.80;;;;;;;12.07;50.55;93651.28;4987217;28;20908;-78
2023/04/22 06:48:13;;;;;;;20.50;12.82;;;;;;;12.33;49.97;93654.50;4974899;28;20042;-76
2023/04/22 06:50:39;;;;;;;19.23;12.75;;;;;;;12.41;50.22;93640.31;4974111;28;20038;-77
2023/04/22 06:53:04;;;;;;;21.55;14.02;;;;;;;12.26;49.55;93632.94;4972501;28;20129;-77
2023/04/22 06:55:30;;;;;;;17.25;13.43;;;;;;;11.91;50.43;93638.53;4972366;28;20034;-77
2023/04/22 06:57:55;;;;;;;16.73;13.10;;;;;;;12.39;49.95;93653.19;4978716;28;20069;-76
2023/04/22 07:00:21;;;;;;;20.88;13.32;;;;;;;12.65;49.01;93642.31;4973964;28;20038;-78
2023/04/22 07:02:46;;;;;;;16.30;12.65;;;;;;;12.45;48.93;93652.66;4972479;28;20108;-76
2023/04/22 07:05:11;;;;;;;14.90;12.80;;;;;;;12.77;48.49;93655.66;4976339;28;20030;-77
2023/04/22 07:07:37;;;;;;;17.85;12.93;;;;;;;12.98;48.45;93645.72;4977573;28;20077;-77
2023/04/22 07:10:03;;;;;;;19.00;13.00;;;;;;;13.09;47.32;93633.50;4977139;28;20028;-77
2023/04/22 07:12:28;;;;;;;19.70;14.20;;;;;;;13.10;47.39;93648.41;4969394;28;20050;-77
2023/04/22 07:14:54;;;;;;;18.77;13.13;;;;;;;13.50;46.64;93653.84;4953525;28;20930;-77
2023/04/22 07:17:21;;;;;;;18.58;13.27;;;;;;;13.49;46.50;93633.63;4968122;28;20042;-76
2023/04/22 07:19:47;;;;;;;21.20;13.20;;;;;;;13.23;46.99;93639.28;4975789;28;20039;-77
2023/04/22 07:22:13;;;;;;;16.40;10.63;;;;;;;13.73;46.31;93663.03;4973942;28;20022;-77
2023/04/22 07:24:38;;;;;;;16.20;12.27;;;;;;;13.86;44.95;93637.03;4973516;28;20041;-76
2023/04/22 07:27:04;;;;;;;15.30;11.23;;;;;;;13.52;45.55;93665.00;4974265;28;20038;-77
2023/04/22 07:29:29;;;;;;;16.65;11.52;;;;;;;13.00;47.27;93653.41;4981430;28;20368;-77
2023/04/22 07:31:55;;;;;;;13.98;12.35;;;;;;;13.22;47.85;93663.66;4982979;28;20038;-77
2023/04/22 07:34:20;;;;;;;17.45;11.30;;;;;;;12.92;47.12;93632.91;4978789;28;20119;-77
2023/04/22 07:36:46;;;;;;;14.10;11.60;;;;;;;12.91;47.02;93663.41;4986361;28;20029;-76
2023/04/22 07:39:11;;;;;;;20.60;13.15;;;;;;;13.12;47.29;93669.41;4972920;28;20034;-78
2023/04/22 07:41:37;;;;;;;16.13;10.82;;;;;;;12.98;46.70;93653.72;4966710;28;20038;-77
2023/04/22 07:44:02;;;;;;;14.13;11.55;;;;;;;13.09;46.60;93665.53;4984940;28;20042;-78
2023/04/22 07:46:28;;;;;;;16.23;11.43;;;;;;;13.45;46.20;93651.41;4983913;28;20054;-78
2023/04/22 07:48:54;;;;;;;11.95;8.32;;;;;;;13.83;44.50;93642.28;4984230;28;20030;-78
2023/04/22 07:51:19;;;;;;;12.73;8.20;;;;;;;13.82;43.82;93654.09;4984901;28;20038;-78
2023/04/22 07:53:44;;;;;;;11.95;9.30;;;;;;;14.04;44.54;93654.38;4980058;28;20122;-77
2023/04/22 07:56:10;;;;;;;11.45;9.60;;;;;;;14.00;44.13;93642.81;4984780;28;20419;-78
2023/04/22 07:58:35;;;;;;;15.27;9.52;;;;;;;14.21;43.21;93645.31;4980900;28;20108;-77
2023/04/22 08:01:01;;;;;;;12.75;9.18;;;;;;;14.30;43.64;93656.66;4975105;28;20033;-78
2023/04/22 08:03:26;;;;;;;11.75;8.90;;;;;;;14.27;43.81;93646.63;4975096;28;20850;-77
2023/04/22 08:05:52;;;;;;;15.30;9.23;;;;;;;14.13;44.17;93655.00;4980954;28;20041;-77
2023/04/22 08:08:17;;;;;;;14.32;8.88;;;;;;;13.87;44.45;93648.53;4979590;28;20623;-76
2023/04/22 08:10:42;;;;;;;12.48;8.48;;;;;;;14.04;44.12;93651.69;4981818;28;20615;-77
2023/04/22 08:13:08;;;;;;;8.50;7.60;;;;;;;13.97;43.44;93634.69;4980904;28;20055;-77
2023/04/22 08:15:33;;;;;;;17.02;8.38;;;;;;;14.26;43.71;93637.06;4983536;28;20057;-78
2023/04/22 08:17:58;;;;;;;15.27;8.45;;;;;;;14.18;42.98;93640.63;4975495;28;20034;-77
2023/04/22 08:20:24;;;;;;;12.27;8.20;;;;;;;14.08;43.40;93643.81;4985544;28;20035;-77
2023/04/22 08:22:51;;;;;;;10.70;7.93;;;;;;;14.28;42.78;93624.09;4976290;28;20125;-77
2023/04/22 08:25:17;;;;;;;11.75;7.78;;;;;;;14.28;41.63;93642.03;4999803;28;20027;-76
2023/04/22 08:27:42;;;;;;;12.77;7.53;;;;;;;14.29;42.93;93641.72;4982092;28;20030;-76
2023/04/22 08:30:08;;;;;;;11.25;8.00;;;;;;;14.13;43.35;93638.97;4986393;28;20035;-76
2023/04/22 08:32:34;;;;;;;12.13;7.35;;;;;;;13.87;43.24;93640.50;4976050;28;20157;-77
2023/04/22 08:35:00;;;;;;;10.57;7.13;;;;;;;13.59;43.56;93622.47;4975363;28;20049;-77
2023/04/22 08:37:26;;;;;;;15.57;8.23;;;;;;;13.11;44.94;93635.81;4984018;28;20034;-77
2023/04/22 08:39:52;;;;;;;10.80;8.38;;;;;;;13.68;44.26;93611.69;4985564;28;20038;-77
2023/04/22 08:42:19;;;;;;;13.77;7.53;;;;;;;13.83;44.02;93591.50;4971283;28;20654;-76
2023/04/22 08:44:45;;;;;;;12.80;8.05;;;;;;;13.73;43.03;93604.22;4990471;28;20045;-77
2023/04/22 08:47:14;;;;;;;10.38;7.40;;;;;;;13.95;43.66;93626.22;4973474;28;20057;-77
2023/04/22 08:49:39;;;;;;;13.15;7.22;;;;;;;13.97;43.82;93607.94;4975551;28;20030;-77
2023/04/22 08:52:05;;;;;;;9.65;6.57;;;;;;;13.67;42.62;93602.91;4973124;28;20066;-77
2023/04/22 08:54:32;;;;;;;11.52;6.95;;;;;;;13.69;43.05;93597.97;4974458;28;20037;-77
2023/04/22 08:57:00;;;;;;;7.85;5.63;;;;;;;13.88;42.43;93605.41;4975093;28;20124;-77
2023/04/22 08:59:26;;;;;;;8.98;6.00;;;;;;;13.91;41.94;93596.72;4976001;28;20053;-77
2023/04/22 09:01:54;;;;;;;7.75;5.80;;;;;;;13.49;42.28;93614.91;4969777;28;20049;-77
2023/04/22 09:04:19;;;;;;;7.57;5.13;;;;;;;13.79;43.52;93606.66;4975092;28;20050;-78
2023/04/22 09:06:47;;;;;;;8.52;5.35;;;;;;;13.82;42.21;93605.97;4971027;28;20027;-77
2023/04/22 09:09:13;;;;;;;7.78;6.10;;;;;;;13.51;41.66;93585.97;4973238;28;20689;-77
2023/04/22 09:11:38;;;;;;;10.75;5.93;;;;;;;13.87;42.44;93592.38;4977897;28;20042;-76
2023/04/22 09:14:04;;;;;;;9.00;6.60;;;;;;;14.11;42.66;93600.31;4979780;28;20050;-77
2023/04/22 09:16:30;;;;;;;7.80;5.78;;;;;;;14.11;41.50;93603.00;4981618;28;20120;-77
2023/04/22 09:18:57;;;;;;;9.30;5.82;;;;;;;14.08;43.63;93604.44;4979269;28;20457;-77
2023/04/22 09:21:30;;;;;;;10.82;6.10;;;;;;;14.03;41.10;93606.59;4981756;28;20053;-77
2023/04/22 09:23:56;;;;;;;8.57;6.00;;;;;;;13.97;41.78;93586.56;4982405;28;20053;-77
2023/04/22 09:26:25;;;;;;;13.15;5.40;;;;;;;13.90;41.26;93592.47;4987264;28;20035;-77
2023/04/22 09:28:53;;;;;;;13.48;6.43;;;;;;;14.21;41.48;93591.03;4986162;28;20069;-77
2023/04/22 09:31:22;;;;;;;11.40;6.05;;;;;;;14.28;41.46;93570.59;4983474;28;20080;-77
2023/04/22 09:33:54;;;;;;;7.22;5.88;;;;;;;14.29;39.81;93582.88;4983802;28;20026;-76
2023/04/22 09:36:27;;;;;;;6.50;5.43;;;;;;;14.35;40.41;93562.78;4985224;28;20762;-77
2023/04/22 09:38:54;;;;;;;9.98;5.82;;;;;;;14.56;40.99;93575.97;4979597;28;20691;-77
2023/04/22 09:41:27;;;;;;;6.32;4.70;;;;;;;14.41;39.23;93569.44;4979680;28;20130;-76
2023/04/22 09:43:58;;;;;;;9.68;5.78;;;;;;;14.54;38.31;93572.84;4979477;28;20070;-78
2023/04/22 09:46:25;;;;;;;15.48;5.70;;;;;;;14.83;37.84;93582.38;4980029;28;20038;-77
2023/04/22 09:48:57;;;;;;;5.22;4.55;;;;;;;14.33;36.63;93583.72;4979883;28;20076;-77
2023/04/22 09:51:24;;;;;;;11.55;4.55;;;;;;;14.10;36.52;93567.47;4981931;28;20058;-78
2023/04/22 09:53:59;;;;;;;6.50;3.97;;;;;;;13.77;37.03;93580.28;4998673;28;20112;-77
2023/04/22 09:56:41;;;;;;;;;;;;;;;13.85;38.26;93574.00;4978846;28;20038;-77
2023/04/22 09:59:07;;;;;;;13.55;5.07;;;;;;;14.26;38.54;93575.53;4983246;28;19929;-78
2023/04/22 10:01:39;;;;;;;9.85;5.68;;;;;;;14.48;38.99;93569.63;4984514;28;20030;-77
2023/04/22 10:04:06;;;;;;;14.20;5.30;;;;;;;14.47;39.81;93564.63;4985295;28;20030;-78
2023/04/22 10:06:32;;;;;;;8.63;5.75;;;;;;;13.85;38.28;93562.53;4985333;28;20022;-77
2023/04/22 10:08:58;;;;;;;7.35;5.82;;;;;;;14.15;38.96;93572.56;4981715;28;20101;-76
2023/04/22 10:11:24;;;;;;;9.00;5.10;;;;;;;14.47;37.00;93552.00;4981429;28;20066;-76
2023/04/22 10:13:49;;;;;;;10.25;4.13;;;;;;;13.47;40.80;93565.59;4983374;28;20191;-77
2023/04/22 10:16:16;;;;;;;8.73;4.63;;;;;;;13.63;41.12;93561.94;4981448;28;20432;-79
2023/04/22 10:18:43;;;;;;;7.07;3.42;;;;;;;13.36;40.14;93578.63;4978252;28;20100;-77
2023/04/22 10:21:08;;;;;;;5.60;2.35;;;;;;;13.01;40.13;93558.84;4978091;28;20049;-79
2023/04/22 10:23:34;;;;;;;8.95;2.92;;;;;;;13.22;40.41;93565.63;4976208;28;20442;-77
2023/04/22 10:26:00;;;;;;;5.22;3.78;;;;;;;13.40;40.19;93558.13;4979082;28;20037;-77
2023/04/22 10:28:28;;;;;;;10.88;3.95;;;;;;;13.19;40.92;93568.19;4975522;28;20065;-77
2023/04/22 10:30:54;;;;;;;7.82;4.35;;;;;;;12.91;40.70;93540.63;4991551;28;20441;-77
2023/04/22 10:33:22;;;;;;;7.05;4.03;;;;;;;13.60;39.55;93541.22;4977368;28;20062;-78
2023/04/22 10:36:13;;;;;;;5.47;2.95;;;;;;;13.32;39.38;93569.72;4975941;28;20038;-78
2023/04/22 10:38:41;;;;;;;6.93;3.00;;;;;;;13.05;39.21;93546.41;4975894;28;20439;-78
2023/04/22 10:41:13;;;;;;;5.50;3.20;;;;;;;12.80;39.49;93551.72;4979568;28;20077;-78
2023/04/22 10:43:43;;;;;;;4.65;3.63;;;;;;;12.66;39.49;93551.28;4976918;28;20350;-79
2023/04/22 10:46:35;;;;;;;9.57;4.60;;;;;;;13.52;39.00;93571.50;4976518;28;20101;-79
2023/04/22 10:49:12;;;;;;;6.95;4.00;;;;;;;13.81;38.23;93545.63;4985023;28;20030;-77
2023/04/22 10:51:54;;;;;;;4.43;3.63;;;;;;;13.80;38.50;93560.09;4980165;28;20038;-79
2023/04/22 10:57:03;;;;;;;75.10;7.45;;;;;;;13.63;38.02;93561.94;4975738;28;20108;-76
2023/04/22 10:59:33;;;;;;;4.13;2.28;;;;;;;13.46;38.59;93551.47;4991641;28;20034;-79
2023/04/22 11:02:04;;;;;;;8.25;3.72;;;;;;;13.46;38.22;93529.31;4979235;28;20064;-77
2023/04/22 11:04:31;;;;;;;4.22;2.38;;;;;;;13.56;39.03;93561.69;4978338;28;20539;-79
2023/04/22 11:07:25;;;;;;;4.35;3.00;;;;;;;13.60;37.63;93551.91;4975772;28;20022;-79
2023/04/22 11:10:14;;;;;;;6.22;2.92;;;;;;;13.45;37.45;93533.09;4973558;28;20766;-78
2023/04/22 11:12:42;;;;;;;9.88;3.22;;;;;;;13.61;37.91;93556.13;4974937;28;20066;-78
2023/04/22 11:15:09;;;;;;;3.75;3.40;;;;;;;13.52;37.12;93523.41;4974725;28;20038;-79
2023/04/22 11:17:36;;;;;;;8.40;3.70;;;;;;;13.42;37.42;93545.25;4978929;28;20034;-78
2023/04/22 11:20:03;;;;;;;7.32;5.85;;;;;;;13.20;37.65;93553.72;4976678;28;20112;-78
2023/04/22 11:22:34;;;;;;;9.00;3.28;;;;;;;13.87;37.17;93553.06;4973457;28;20045;-78
2023/04/22 11:25:00;;;;;;;5.88;3.55;;;;;;;13.93;35.92;93553.59;4984631;28;20022;-79
2023/04/22 11:27:26;;;;;;;6.72;3.65;;;;;;;13.46;36.75;93546.13;4976561;28;20034;-79